PWSweather.com
Personal Weather Stations
Station Observations
DAVIS2016
WorthingGB

WorthingGB

Lat: 50.8130266, Lon: -0.3832443000000012

Elevation: 34.8

Station Type: davis vantage vue 6250

Latest ConditionsUpdated 8:45:00 PM GMT Wednesday, Apr 24, 2019
Currently Today's Max Today's Min Today's Average
Temperature 49.6°F9.8°C 58.6°F14.8°C 49.2°F9.6°C 53.4°F11.9°C
Dew Point 45.9°F7.7°C 52.1°F11.2°C 45.7°F7.6°C 49.1°F9.5°C
Winds 3.0 mph SE4.8 kmh SE 12.0 mph -19.3 kmh - - 4.3 mph 6.9 kmh
Wind Gusts 10.0 mph16.1 kmh 24.0 mph38.6 kmh - -
Humidity 87% 91% 71% 86%
Pressure 29.45 in997.3 mb 29.46 in997.6 mb 29.26 in990.9 mb -
Precipitation - 0.05 in1.3 mm - -
Hour Temp Dew Point Humidity Winds Wind Gusts Pressure Precip Precip Rate Daily Precip Total
08:45 PM 49.6°F9.8°C 45.9°F7.7°C 87% 3.0 mph SE4.8 kmh SE 10.0 mph16.1 kmh 29.45 in997.3 mb 0.00 in0.0 mm 0.00 in0.0 mm 0.05 in1.3 mm
08:40 PM 49.6°F9.8°C 45.9°F7.7°C 87% 3.0 mph SE4.8 kmh SE 9.0 mph14.5 kmh 29.45 in997.3 mb 0.00 in0.0 mm 0.00 in0.0 mm 0.05 in1.3 mm
08:30 PM 49.8°F9.9°C 46.1°F7.8°C 87% 4.0 mph SE6.4 kmh SE 11.0 mph17.7 kmh 29.44 in997.0 mb 0.00 in0.0 mm 0.00 in0.0 mm 0.05 in1.3 mm
08:20 PM 49.6°F9.8°C 45.9°F7.7°C 87% 5.0 mph SE8.0 kmh SE 11.0 mph17.7 kmh 29.45 in997.3 mb 0.00 in0.0 mm 0.00 in0.0 mm 0.05 in1.3 mm
08:10 PM 49.4°F9.7°C 45.7°F7.6°C 87% 4.0 mph SE6.4 kmh SE 8.0 mph12.9 kmh 29.46 in997.6 mb 0.00 in0.0 mm 0.00 in0.0 mm 0.05 in1.3 mm
08:00 PM 49.3°F9.6°C 45.9°F7.7°C 88% 4.0 mph SE6.4 kmh SE 11.0 mph17.7 kmh 29.45 in997.3 mb 0.00 in0.0 mm 0.00 in0.0 mm 0.05 in1.3 mm
07:50 PM 49.2°F9.6°C 45.8°F7.7°C 88% 5.0 mph SE8.0 kmh SE 11.0 mph17.7 kmh 29.45 in997.3 mb 0.00 in0.0 mm 0.00 in0.0 mm 0.05 in1.3 mm
07:40 PM 49.3°F9.6°C 46.2°F7.9°C 89% 5.0 mph SSE8.0 kmh SSE 11.0 mph17.7 kmh 29.45 in997.3 mb 0.00 in0.0 mm 0.00 in0.0 mm 0.05 in1.3 mm
07:30 PM 49.4°F9.7°C 46.3°F7.9°C 89% 5.0 mph SSE8.0 kmh SSE 9.0 mph14.5 kmh 29.44 in997.0 mb 0.00 in0.0 mm 0.00 in0.0 mm 0.05 in1.3 mm
07:20 PM 49.5°F9.7°C 46.4°F8.0°C 89% 4.0 mph SSE6.4 kmh SSE 9.0 mph14.5 kmh 29.44 in997.0 mb 0.00 in0.0 mm 0.00 in0.0 mm 0.05 in1.3 mm
07:10 PM 49.5°F9.7°C 46.4°F8.0°C 89% 5.0 mph SSE8.0 kmh SSE 9.0 mph14.5 kmh 29.43 in996.6 mb 0.00 in0.0 mm 0.00 in0.0 mm 0.05 in1.3 mm
07:00 PM 49.6°F9.8°C 46.5°F8.1°C 89% 3.0 mph SE4.8 kmh SE 7.0 mph11.3 kmh 29.43 in996.6 mb 0.00 in0.0 mm 0.00 in0.0 mm 0.05 in1.3 mm
06:50 PM 49.5°F9.7°C 46.4°F8.0°C 89% 2.0 mph SE3.2 kmh SE 6.0 mph9.7 kmh 29.43 in996.6 mb 0.00 in0.0 mm 0.00 in0.0 mm 0.05 in1.3 mm
06:40 PM 49.4°F9.7°C 46.6°F8.1°C 90% 3.0 mph SSE4.8 kmh SSE 6.0 mph9.7 kmh 29.42 in996.3 mb 0.01 in0.3 mm 0.00 in0.0 mm 0.05 in1.3 mm
06:30 PM 49.3°F9.6°C 46.5°F8.1°C 90% 3.0 mph SSE4.8 kmh SSE 7.0 mph11.3 kmh 29.42 in996.3 mb 0.01 in0.3 mm 0.00 in0.0 mm 0.05 in1.3 mm
06:20 PM 49.3°F9.6°C 46.5°F8.1°C 90% 3.0 mph SSE4.8 kmh SSE 8.0 mph12.9 kmh 29.42 in996.3 mb 0.02 in0.5 mm 0.00 in0.0 mm 0.05 in1.3 mm
06:15 PM 49.3°F9.6°C 46.5°F8.1°C 90% 4.0 mph S6.4 kmh S 7.0 mph11.3 kmh 29.42 in996.3 mb 0.02 in0.5 mm 0.00 in0.0 mm 0.05 in1.3 mm
06:10 PM 49.4°F9.7°C 46.9°F8.3°C 91% 4.0 mph SSE6.4 kmh SSE 9.0 mph14.5 kmh 29.43 in996.6 mb 0.03 in0.8 mm 0.00 in0.0 mm 0.05 in1.3 mm
06:00 PM 49.4°F9.7°C 46.9°F8.3°C 91% 3.0 mph SSW4.8 kmh SSW 10.0 mph16.1 kmh 29.42 in996.3 mb 0.03 in0.8 mm 0.00 in0.0 mm 0.05 in1.3 mm
05:50 PM 49.4°F9.7°C 46.9°F8.3°C 91% 4.0 mph SW6.4 kmh SW 13.0 mph20.9 kmh 29.42 in996.3 mb 0.03 in0.8 mm 0.12 in3.0 mm 0.05 in1.3 mm
05:45 PM 49.5°F9.7°C 47.0°F8.3°C 91% 4.0 mph SSW6.4 kmh SSW 11.0 mph17.7 kmh 29.43 in996.6 mb 0.02 in0.5 mm 0.00 in0.0 mm 0.04 in1.0 mm
05:40 PM 49.6°F9.8°C 47.1°F8.4°C 91% 5.0 mph SSW8.0 kmh SSW 17.0 mph27.4 kmh 29.43 in996.6 mb 0.02 in0.5 mm 0.00 in0.0 mm 0.04 in1.0 mm
05:30 PM 49.8°F9.9°C 47.0°F8.3°C 90% 8.0 mph SSW12.9 kmh SSW 17.0 mph27.4 kmh 29.43 in996.6 mb 0.02 in0.5 mm 0.06 in1.5 mm 0.04 in1.0 mm
05:20 PM 50.0°F10.0°C 47.2°F8.4°C 90% 9.0 mph SSW14.5 kmh SSW 23.0 mph37.0 kmh 29.44 in997.0 mb 0.01 in0.3 mm 0.00 in0.0 mm 0.02 in0.5 mm
05:15 PM 49.9°F9.9°C 46.8°F8.2°C 89% 10.0 mph SSW16.1 kmh SSW 20.0 mph32.2 kmh 29.44 in997.0 mb 0.01 in0.3 mm 0.12 in3.0 mm 0.02 in0.5 mm
05:10 PM 51.1°F10.6°C 47.7°F8.7°C 88% 11.0 mph S17.7 kmh S 23.0 mph37.0 kmh 29.43 in996.6 mb 0.00 in0.0 mm 0.00 in0.0 mm 0.02 in0.5 mm
05:00 PM 52.7°F11.5°C 48.9°F9.4°C 87% 9.0 mph SSE14.5 kmh SSE 21.0 mph33.8 kmh 29.43 in996.6 mb 0.00 in0.0 mm 0.00 in0.0 mm 0.02 in0.5 mm
04:50 PM 53.2°F11.8°C 49.1°F9.5°C 86% 6.0 mph SSE9.7 kmh SSE 13.0 mph20.9 kmh 29.43 in996.6 mb 0.00 in0.0 mm 0.00 in0.0 mm 0.02 in0.5 mm
04:45 PM 53.3°F11.8°C 49.2°F9.6°C 86% 6.0 mph SSE9.7 kmh SSE 13.0 mph20.9 kmh 29.43 in996.6 mb 0.00 in0.0 mm 0.00 in0.0 mm 0.02 in0.5 mm
04:40 PM 53.9°F12.2°C 49.2°F9.6°C 84% 6.0 mph SE9.7 kmh SE 11.0 mph17.7 kmh 29.43 in996.6 mb 0.00 in0.0 mm 0.00 in0.0 mm 0.02 in0.5 mm
04:30 PM 53.9°F12.2°C 49.2°F9.6°C 84% 5.0 mph SSE8.0 kmh SSE 12.0 mph19.3 kmh 29.42 in996.3 mb 0.00 in0.0 mm 0.00 in0.0 mm 0.02 in0.5 mm
04:20 PM 53.0°F11.7°C 49.2°F9.6°C 87% 5.0 mph SSE8.0 kmh SSE 12.0 mph19.3 kmh 29.41 in995.9 mb 0.00 in0.0 mm 0.00 in0.0 mm 0.02 in0.5 mm
04:15 PM 53.0°F11.7°C 49.5°F9.7°C 88% 5.0 mph S8.0 kmh S 10.0 mph16.1 kmh 29.41 in995.9 mb 0.00 in0.0 mm 0.00 in0.0 mm 0.02 in0.5 mm
04:10 PM 52.2°F11.2°C 48.8°F9.3°C 88% 6.0 mph SSW9.7 kmh SSW 12.0 mph19.3 kmh 29.41 in995.9 mb 0.00 in0.0 mm 0.00 in0.0 mm 0.02 in0.5 mm
04:00 PM 52.0°F11.1°C 48.9°F9.4°C 89% 5.0 mph SSW8.0 kmh SSW 10.0 mph16.1 kmh 29.41 in995.9 mb 0.00 in0.0 mm 0.00 in0.0 mm 0.02 in0.5 mm
03:50 PM 51.8°F11.0°C 48.7°F9.3°C 89% 4.0 mph SSW6.4 kmh SSW 9.0 mph14.5 kmh 29.41 in995.9 mb 0.00 in0.0 mm 0.00 in0.0 mm 0.02 in0.5 mm
03:45 PM 51.7°F10.9°C 48.6°F9.2°C 89% 4.0 mph S6.4 kmh S 8.0 mph12.9 kmh 29.41 in995.9 mb 0.00 in0.0 mm 0.00 in0.0 mm 0.02 in0.5 mm
03:40 PM 51.7°F10.9°C 48.6°F9.2°C 89% 5.0 mph S8.0 kmh S 12.0 mph19.3 kmh 29.41 in995.9 mb 0.00 in0.0 mm 0.00 in0.0 mm 0.02 in0.5 mm
03:30 PM 51.9°F11.1°C 48.8°F9.3°C 89% 5.0 mph SSE8.0 kmh SSE 12.0 mph19.3 kmh 29.40 in995.6 mb 0.00 in0.0 mm 0.00 in0.0 mm 0.02 in0.5 mm
03:20 PM 52.1°F11.2°C 48.7°F9.3°C 88% 5.0 mph SSW8.0 kmh SSW 12.0 mph19.3 kmh 29.40 in995.6 mb 0.00 in0.0 mm 0.00 in0.0 mm 0.02 in0.5 mm
03:15 PM 52.1°F11.2°C 48.7°F9.3°C 88% 5.0 mph S8.0 kmh S 11.0 mph17.7 kmh 29.41 in995.9 mb 0.00 in0.0 mm 0.00 in0.0 mm 0.02 in0.5 mm
03:10 PM 52.3°F11.3°C 48.5°F9.2°C 87% 6.0 mph SSW9.7 kmh SSW 12.0 mph19.3 kmh 29.41 in995.9 mb 0.00 in0.0 mm 0.00 in0.0 mm 0.02 in0.5 mm
03:00 PM 52.5°F11.4°C 48.7°F9.3°C 87% 5.0 mph SSW8.0 kmh SSW 13.0 mph20.9 kmh 29.41 in995.9 mb 0.00 in0.0 mm 0.00 in0.0 mm 0.02 in0.5 mm
02:50 PM 52.4°F11.3°C 48.3°F9.1°C 86% 6.0 mph SSW9.7 kmh SSW 13.0 mph20.9 kmh 29.41 in995.9 mb 0.00 in0.0 mm 0.00 in0.0 mm 0.02 in0.5 mm
02:45 PM 52.4°F11.3°C 48.3°F9.1°C 86% 6.0 mph SSW9.7 kmh SSW 13.0 mph20.9 kmh 29.41 in995.9 mb 0.00 in0.0 mm 0.00 in0.0 mm 0.02 in0.5 mm
02:40 PM 52.6°F11.4°C 48.5°F9.2°C 86% 6.0 mph SSE9.7 kmh SSE 13.0 mph20.9 kmh 29.40 in995.6 mb 0.00 in0.0 mm 0.00 in0.0 mm 0.02 in0.5 mm
02:30 PM 52.6°F11.4°C 48.5°F9.2°C 86% 6.0 mph SSW9.7 kmh SSW 17.0 mph27.4 kmh 29.40 in995.6 mb 0.00 in0.0 mm 0.00 in0.0 mm 0.02 in0.5 mm
02:20 PM 52.9°F11.6°C 48.5°F9.2°C 85% 8.0 mph SSW12.9 kmh SSW 17.0 mph27.4 kmh 29.40 in995.6 mb 0.00 in0.0 mm 0.00 in0.0 mm 0.02 in0.5 mm
02:15 PM 53.0°F11.7°C 48.6°F9.2°C 85% 7.0 mph SSW11.3 kmh SSW 15.0 mph24.1 kmh 29.39 in995.3 mb 0.00 in0.0 mm 0.00 in0.0 mm 0.02 in0.5 mm
02:10 PM 53.3°F11.8°C 48.6°F9.2°C 84% 6.0 mph SSW9.7 kmh SSW 15.0 mph24.1 kmh 29.39 in995.3 mb 0.00 in0.0 mm 0.00 in0.0 mm 0.02 in0.5 mm
02:00 PM 53.4°F11.9°C 48.7°F9.3°C 84% 6.0 mph SSW9.7 kmh SSW 17.0 mph27.4 kmh 29.39 in995.3 mb 0.00 in0.0 mm 0.00 in0.0 mm 0.02 in0.5 mm
01:50 PM 53.4°F11.9°C 48.7°F9.3°C 84% 7.0 mph SW11.3 kmh SW 17.0 mph27.4 kmh 29.39 in995.3 mb 0.00 in0.0 mm 0.00 in0.0 mm 0.02 in0.5 mm
01:45 PM 53.5°F11.9°C 48.8°F9.3°C 84% 7.0 mph SW11.3 kmh SW 14.0 mph22.5 kmh 29.38 in994.9 mb 0.00 in0.0 mm 0.00 in0.0 mm 0.02 in0.5 mm
01:40 PM 53.2°F11.8°C 48.5°F9.2°C 84% 7.0 mph WSW11.3 kmh WSW 22.0 mph35.4 kmh 29.38 in994.9 mb 0.00 in0.0 mm 0.00 in0.0 mm 0.02 in0.5 mm
01:30 PM 53.1°F11.7°C 48.4°F9.1°C 84% 10.0 mph WSW16.1 kmh WSW 22.0 mph35.4 kmh 29.37 in994.6 mb 0.00 in0.0 mm 0.00 in0.0 mm 0.02 in0.5 mm
01:20 PM 53.3°F11.8°C 48.3°F9.1°C 83% 8.0 mph SW12.9 kmh SW 18.0 mph29.0 kmh 29.37 in994.6 mb 0.00 in0.0 mm 0.00 in0.0 mm 0.02 in0.5 mm
01:15 PM 53.3°F11.8°C 48.3°F9.1°C 83% 9.0 mph SW14.5 kmh SW 18.0 mph29.0 kmh 29.37 in994.6 mb 0.00 in0.0 mm 0.00 in0.0 mm 0.02 in0.5 mm
01:10 PM 53.3°F11.8°C 48.3°F9.1°C 83% 8.0 mph SW12.9 kmh SW 18.0 mph29.0 kmh 29.37 in994.6 mb 0.00 in0.0 mm 0.00 in0.0 mm 0.02 in0.5 mm
01:00 PM 52.6°F11.4°C 48.2°F9.0°C 85% 8.0 mph WSW12.9 kmh WSW 23.0 mph37.0 kmh 29.37 in994.6 mb 0.00 in0.0 mm 0.00 in0.0 mm 0.02 in0.5 mm
12:50 PM 52.7°F11.5°C 48.6°F9.2°C 86% 11.0 mph WSW17.7 kmh WSW 23.0 mph37.0 kmh 29.37 in994.6 mb 0.00 in0.0 mm 0.00 in0.0 mm 0.02 in0.5 mm
12:45 PM 52.6°F11.4°C 48.8°F9.3°C 87% 12.0 mph SW19.3 kmh SW 20.0 mph32.2 kmh 29.37 in994.6 mb 0.00 in0.0 mm 0.00 in0.0 mm 0.02 in0.5 mm
12:40 PM 53.4°F11.9°C 49.3°F9.6°C 86% 10.0 mph SW16.1 kmh SW 20.0 mph32.2 kmh 29.36 in994.2 mb 0.00 in0.0 mm 0.00 in0.0 mm 0.02 in0.5 mm
12:30 PM 53.8°F12.1°C 49.4°F9.7°C 85% 10.0 mph WSW16.1 kmh WSW 22.0 mph35.4 kmh 29.35 in993.9 mb 0.00 in0.0 mm 0.00 in0.0 mm 0.02 in0.5 mm
12:20 PM 54.2°F12.3°C 49.5°F9.7°C 84% 11.0 mph WSW17.7 kmh WSW 22.0 mph35.4 kmh 29.34 in993.6 mb 0.00 in0.0 mm 0.00 in0.0 mm 0.02 in0.5 mm
12:15 PM 54.2°F12.3°C 49.5°F9.7°C 84% 11.0 mph SW17.7 kmh SW 22.0 mph35.4 kmh 29.33 in993.2 mb 0.00 in0.0 mm 0.00 in0.0 mm 0.02 in0.5 mm
12:10 PM 54.1°F12.3°C 49.7°F9.8°C 85% 10.0 mph WSW16.1 kmh WSW 22.0 mph35.4 kmh 29.33 in993.2 mb 0.00 in0.0 mm 0.00 in0.0 mm 0.02 in0.5 mm
12:00 PM 53.5°F11.9°C 50.0°F10.0°C 88% 10.0 mph WSW16.1 kmh WSW 24.0 mph38.6 kmh 29.32 in992.9 mb 0.00 in0.0 mm 0.00 in0.0 mm 0.02 in0.5 mm
11:50 AM 53.9°F12.2°C 50.1°F10.1°C 87% 10.0 mph SW16.1 kmh SW 24.0 mph38.6 kmh 29.32 in992.9 mb 0.00 in0.0 mm 0.00 in0.0 mm 0.02 in0.5 mm
11:45 AM 53.8°F12.1°C 49.7°F9.8°C 86% 10.0 mph SW16.1 kmh SW 24.0 mph38.6 kmh 29.32 in992.9 mb 0.00 in0.0 mm 0.00 in0.0 mm 0.02 in0.5 mm
11:40 AM 54.6°F12.6°C 50.2°F10.1°C 85% 9.0 mph SW14.5 kmh SW 23.0 mph37.0 kmh 29.32 in992.9 mb 0.00 in0.0 mm 0.00 in0.0 mm 0.02 in0.5 mm
11:30 AM 54.9°F12.7°C 50.2°F10.1°C 84% 7.0 mph WSW11.3 kmh WSW 20.0 mph32.2 kmh 29.31 in992.6 mb 0.00 in0.0 mm 0.00 in0.0 mm 0.02 in0.5 mm
11:20 AM 54.9°F12.7°C 50.2°F10.1°C 84% 9.0 mph W14.5 kmh W 20.0 mph32.2 kmh 29.30 in992.2 mb 0.00 in0.0 mm 0.00 in0.0 mm 0.02 in0.5 mm
11:15 AM 54.9°F12.7°C 50.2°F10.1°C 84% 9.0 mph WSW14.5 kmh WSW 20.0 mph32.2 kmh 29.30 in992.2 mb 0.00 in0.0 mm 0.00 in0.0 mm 0.02 in0.5 mm
11:10 AM 54.6°F12.6°C 50.2°F10.1°C 85% 8.0 mph W12.9 kmh W 20.0 mph32.2 kmh 29.29 in991.9 mb 0.00 in0.0 mm 0.00 in0.0 mm 0.02 in0.5 mm
11:00 AM 53.8°F12.1°C 50.6°F10.3°C 89% 9.0 mph WSW14.5 kmh WSW 20.0 mph32.2 kmh 29.28 in991.5 mb 0.00 in0.0 mm 0.00 in0.0 mm 0.02 in0.5 mm
10:50 AM 53.7°F12.1°C 50.8°F10.4°C 90% 7.0 mph WSW11.3 kmh WSW 19.0 mph30.6 kmh 29.28 in991.5 mb 0.00 in0.0 mm 0.00 in0.0 mm 0.02 in0.5 mm
10:45 AM 53.8°F12.1°C 51.2°F10.7°C 91% 6.0 mph WSW9.7 kmh WSW 14.0 mph22.5 kmh 29.28 in991.5 mb 0.00 in0.0 mm 0.00 in0.0 mm 0.02 in0.5 mm
10:40 AM 53.6°F12.0°C 51.0°F10.6°C 91% 6.0 mph SW9.7 kmh SW 19.0 mph30.6 kmh 29.28 in991.5 mb 0.00 in0.0 mm 0.00 in0.0 mm 0.02 in0.5 mm
10:30 AM 54.5°F12.5°C 51.3°F10.7°C 89% 9.0 mph SSE14.5 kmh SSE 19.0 mph30.6 kmh 29.29 in991.9 mb 0.00 in0.0 mm 0.00 in0.0 mm 0.02 in0.5 mm
10:20 AM 54.5°F12.5°C 51.6°F10.9°C 90% 5.0 mph SE8.0 kmh SE 12.0 mph19.3 kmh 29.28 in991.5 mb 0.00 in0.0 mm 0.00 in0.0 mm 0.02 in0.5 mm
10:15 AM 54.5°F12.5°C 51.9°F11.1°C 91% 5.0 mph SE8.0 kmh SE 12.0 mph19.3 kmh 29.28 in991.5 mb 0.00 in0.0 mm 0.00 in0.0 mm 0.02 in0.5 mm
10:10 AM 54.3°F12.4°C 51.7°F10.9°C 91% 5.0 mph SE8.0 kmh SE 10.0 mph16.1 kmh 29.28 in991.5 mb 0.00 in0.0 mm 0.00 in0.0 mm 0.02 in0.5 mm
10:00 AM 54.6°F12.6°C 51.7°F10.9°C 90% 4.0 mph SE6.4 kmh SE 10.0 mph16.1 kmh 29.27 in991.2 mb 0.00 in0.0 mm 0.00 in0.0 mm 0.02 in0.5 mm
09:50 AM 54.7°F12.6°C 51.8°F11.0°C 90% 3.0 mph SE4.8 kmh SE 13.0 mph20.9 kmh 29.27 in991.2 mb 0.02 in0.5 mm 0.00 in0.0 mm 0.02 in0.5 mm
09:45 AM 54.7°F12.6°C 52.1°F11.2°C 91% 5.0 mph E8.0 kmh E 10.0 mph16.1 kmh 29.28 in991.5 mb 0.02 in0.5 mm 0.00 in0.0 mm 0.02 in0.5 mm
09:40 AM 54.6°F12.6°C 51.7°F10.9°C 90% 5.0 mph E8.0 kmh E 13.0 mph20.9 kmh 29.27 in991.2 mb 0.02 in0.5 mm 0.00 in0.0 mm 0.02 in0.5 mm
09:30 AM 54.4°F12.4°C 51.5°F10.8°C 90% 6.0 mph E9.7 kmh E 14.0 mph22.5 kmh 29.27 in991.2 mb 0.02 in0.5 mm 0.00 in0.0 mm 0.02 in0.5 mm
09:20 AM 54.7°F12.6°C 51.8°F11.0°C 90% 6.0 mph E9.7 kmh E 14.0 mph22.5 kmh 29.27 in991.2 mb 0.02 in0.5 mm 0.00 in0.0 mm 0.02 in0.5 mm
09:15 AM 54.7°F12.6°C 51.5°F10.8°C 89% 6.0 mph E9.7 kmh E 14.0 mph22.5 kmh 29.27 in991.2 mb 0.02 in0.5 mm 0.00 in0.0 mm 0.02 in0.5 mm
09:10 AM 55.0°F12.8°C 51.8°F11.0°C 89% 5.0 mph E8.0 kmh E 14.0 mph22.5 kmh 29.27 in991.2 mb 0.02 in0.5 mm 0.00 in0.0 mm 0.02 in0.5 mm
09:00 AM 55.9°F13.3°C 51.8°F11.0°C 86% 7.0 mph E11.3 kmh E 15.0 mph24.1 kmh 29.27 in991.2 mb 0.02 in0.5 mm 0.02 in0.5 mm 0.02 in0.5 mm
08:50 AM 57.1°F13.9°C 51.7°F10.9°C 82% 6.0 mph E9.7 kmh E 15.0 mph24.1 kmh 29.27 in991.2 mb 0.00 in0.0 mm 0.00 in0.0 mm 0.00 in0.0 mm
08:45 AM 57.2°F14.0°C 51.4°F10.8°C 81% 6.0 mph E9.7 kmh E 13.0 mph20.9 kmh 29.27 in991.2 mb 0.00 in0.0 mm 0.00 in0.0 mm 0.00 in0.0 mm
08:40 AM 58.0°F14.4°C 51.5°F10.8°C 79% 6.0 mph E9.7 kmh E 13.0 mph20.9 kmh 29.26 in990.9 mb 0.00 in0.0 mm 0.00 in0.0 mm 0.00 in0.0 mm
08:30 AM 58.3°F14.6°C 51.1°F10.6°C 77% 4.0 mph E6.4 kmh E 11.0 mph17.7 kmh 29.27 in991.2 mb 0.00 in0.0 mm 0.00 in0.0 mm 0.00 in0.0 mm
08:20 AM 57.9°F14.4°C 50.7°F10.4°C 77% 4.0 mph E6.4 kmh E 10.0 mph16.1 kmh 29.27 in991.2 mb 0.00 in0.0 mm 0.00 in0.0 mm 0.00 in0.0 mm
08:15 AM 57.9°F14.4°C 50.7°F10.4°C 77% 4.0 mph E6.4 kmh E 9.0 mph14.5 kmh 29.27 in991.2 mb 0.00 in0.0 mm 0.00 in0.0 mm 0.00 in0.0 mm
08:10 AM 57.9°F14.4°C 50.7°F10.4°C 77% 3.0 mph E4.8 kmh E 9.0 mph14.5 kmh 29.27 in991.2 mb 0.00 in0.0 mm 0.00 in0.0 mm 0.00 in0.0 mm
08:00 AM 58.3°F14.6°C 51.8°F11.0°C 79% 3.0 mph E4.8 kmh E 11.0 mph17.7 kmh 29.27 in991.2 mb 0.00 in0.0 mm 0.00 in0.0 mm 0.00 in0.0 mm
07:50 AM 58.5°F14.7°C 51.7°F10.9°C 78% 5.0 mph E8.0 kmh E 11.0 mph17.7 kmh 29.27 in991.2 mb 0.00 in0.0 mm 0.00 in0.0 mm 0.00 in0.0 mm
07:45 AM 58.6°F14.8°C 52.1°F11.2°C 79% 4.0 mph E6.4 kmh E 11.0 mph17.7 kmh 29.26 in990.9 mb 0.00 in0.0 mm 0.00 in0.0 mm 0.00 in0.0 mm
07:40 AM 58.1°F14.5°C 51.6°F10.9°C 79% 4.0 mph E6.4 kmh E 10.0 mph16.1 kmh 29.26 in990.9 mb 0.00 in0.0 mm 0.00 in0.0 mm 0.00 in0.0 mm
07:30 AM 57.5°F14.2°C 52.0°F11.1°C 82% 3.0 mph ENE4.8 kmh ENE 7.0 mph11.3 kmh 29.26 in990.9 mb 0.00 in0.0 mm 0.00 in0.0 mm 0.00 in0.0 mm
07:20 AM 57.2°F14.0°C 51.8°F11.0°C 82% 3.0 mph E4.8 kmh E 7.0 mph11.3 kmh 29.27 in991.2 mb 0.00 in0.0 mm 0.00 in0.0 mm 0.00 in0.0 mm
07:15 AM 57.2°F14.0°C 51.8°F11.0°C 82% 3.0 mph E4.8 kmh E 7.0 mph11.3 kmh 29.27 in991.2 mb 0.00 in0.0 mm 0.00 in0.0 mm 0.00 in0.0 mm
07:10 AM 56.9°F13.8°C 51.8°F11.0°C 83% 2.0 mph E3.2 kmh E 6.0 mph9.7 kmh 29.27 in991.2 mb 0.00 in0.0 mm 0.00 in0.0 mm 0.00 in0.0 mm
07:00 AM 56.5°F13.6°C 51.7°F10.9°C 84% 2.0 mph ENE3.2 kmh ENE 6.0 mph9.7 kmh 29.27 in991.2 mb 0.00 in0.0 mm 0.00 in0.0 mm 0.00 in0.0 mm
06:50 AM 56.1°F13.4°C 51.7°F10.9°C 85% 1.0 mph ENE1.6 kmh ENE 5.0 mph8.0 kmh 29.27 in991.2 mb 0.00 in0.0 mm 0.00 in0.0 mm 0.00 in0.0 mm
06:45 AM 56.1°F13.4°C 52.0°F11.1°C 86% 2.0 mph E3.2 kmh E 5.0 mph8.0 kmh 29.27 in991.2 mb 0.00 in0.0 mm 0.00 in0.0 mm 0.00 in0.0 mm
06:40 AM 55.6°F13.1°C 51.5°F10.8°C 86% 1.0 mph ENE1.6 kmh ENE 5.0 mph8.0 kmh 29.27 in991.2 mb 0.00 in0.0 mm 0.00 in0.0 mm 0.00 in0.0 mm
06:30 AM 55.2°F12.9°C 51.4°F10.8°C 87% 2.0 mph ENE3.2 kmh ENE 5.0 mph8.0 kmh 29.27 in991.2 mb 0.00 in0.0 mm 0.00 in0.0 mm 0.00 in0.0 mm
06:20 AM 54.6°F12.6°C 51.1°F10.6°C 88% 1.0 mph ENE1.6 kmh ENE 3.0 mph4.8 kmh 29.28 in991.5 mb 0.00 in0.0 mm 0.00 in0.0 mm 0.00 in0.0 mm
06:15 AM 54.7°F12.6°C 51.2°F10.7°C 88% 1.0 mph ENE1.6 kmh ENE 3.0 mph4.8 kmh 29.28 in991.5 mb 0.00 in0.0 mm 0.00 in0.0 mm 0.00 in0.0 mm
06:10 AM 54.2°F12.3°C 50.7°F10.4°C 88% 1.0 mph ENE1.6 kmh ENE 4.0 mph6.4 kmh 29.28 in991.5 mb 0.00 in0.0 mm 0.00 in0.0 mm 0.00 in0.0 mm
06:00 AM 53.9°F12.2°C 50.7°F10.4°C 89% 1.0 mph ENE1.6 kmh ENE 4.0 mph6.4 kmh 29.28 in991.5 mb 0.00 in0.0 mm 0.00 in0.0 mm 0.00 in0.0 mm
05:50 AM 53.6°F12.0°C 50.4°F10.2°C 89% 1.0 mph NE1.6 kmh NE 4.0 mph6.4 kmh 29.28 in991.5 mb 0.00 in0.0 mm 0.00 in0.0 mm 0.00 in0.0 mm
05:45 AM 53.6°F12.0°C 50.4°F10.2°C 89% 1.0 mph NE1.6 kmh NE 4.0 mph6.4 kmh 29.28 in991.5 mb 0.00 in0.0 mm 0.00 in0.0 mm 0.00 in0.0 mm
05:40 AM 53.4°F11.9°C 50.2°F10.1°C 89% 1.0 mph NE1.6 kmh NE 4.0 mph6.4 kmh 29.29 in991.9 mb 0.00 in0.0 mm 0.00 in0.0 mm 0.00 in0.0 mm
05:30 AM 53.2°F11.8°C 50.3°F10.2°C 90% 1.0 mph E1.6 kmh E 4.0 mph6.4 kmh 29.29 in991.9 mb 0.00 in0.0 mm 0.00 in0.0 mm 0.00 in0.0 mm
05:20 AM 53.0°F11.7°C 50.1°F10.1°C 90% 1.0 mph ENE1.6 kmh ENE 4.0 mph6.4 kmh 29.29 in991.9 mb 0.00 in0.0 mm 0.00 in0.0 mm 0.00 in0.0 mm
05:15 AM 53.0°F11.7°C 50.1°F10.1°C 90% Calm Calm 2.0 mph3.2 kmh 29.29 in991.9 mb 0.00 in0.0 mm 0.00 in0.0 mm 0.00 in0.0 mm
05:10 AM 52.8°F11.6°C 49.9°F9.9°C 90% 1.0 mph ENE1.6 kmh ENE 5.0 mph8.0 kmh 29.29 in991.9 mb 0.00 in0.0 mm 0.00 in0.0 mm 0.00 in0.0 mm
05:00 AM 52.8°F11.6°C 49.9°F9.9°C 90% 1.0 mph E1.6 kmh E 5.0 mph8.0 kmh 29.29 in991.9 mb 0.00 in0.0 mm 0.00 in0.0 mm 0.00 in0.0 mm
04:50 AM 52.7°F11.5°C 49.8°F9.9°C 90% Calm Calm 4.0 mph6.4 kmh 29.29 in991.9 mb 0.00 in0.0 mm 0.00 in0.0 mm 0.00 in0.0 mm
04:45 AM 52.7°F11.5°C 49.8°F9.9°C 90% 1.0 mph E1.6 kmh E 4.0 mph6.4 kmh 29.29 in991.9 mb 0.00 in0.0 mm 0.00 in0.0 mm 0.00 in0.0 mm
04:40 AM 52.6°F11.4°C 49.8°F9.9°C 90% 1.0 mph ENE1.6 kmh ENE 4.0 mph6.4 kmh 29.29 in991.9 mb 0.00 in0.0 mm 0.00 in0.0 mm 0.00 in0.0 mm
04:30 AM 52.6°F11.4°C 49.8°F9.9°C 90% 1.0 mph ENE1.6 kmh ENE 4.0 mph6.4 kmh 29.29 in991.9 mb 0.00 in0.0 mm 0.00 in0.0 mm 0.00 in0.0 mm
04:20 AM 52.7°F11.5°C 49.5°F9.7°C 89% 1.0 mph NE1.6 kmh NE 4.0 mph6.4 kmh 29.29 in991.9 mb 0.00 in0.0 mm 0.00 in0.0 mm 0.00 in0.0 mm
04:15 AM 52.7°F11.5°C 49.5°F9.7°C 89% 1.0 mph NE1.6 kmh NE 3.0 mph4.8 kmh 29.29 in991.9 mb 0.00 in0.0 mm 0.00 in0.0 mm 0.00 in0.0 mm
04:10 AM 52.6°F11.4°C 49.4°F9.7°C 89% 1.0 mph ENE1.6 kmh ENE 3.0 mph4.8 kmh 29.30 in992.2 mb 0.00 in0.0 mm 0.00 in0.0 mm 0.00 in0.0 mm
04:00 AM 52.5°F11.4°C 49.4°F9.7°C 89% Calm Calm 1.0 mph1.6 kmh 29.30 in992.2 mb 0.00 in0.0 mm 0.00 in0.0 mm 0.00 in0.0 mm
03:50 AM 52.3°F11.3°C 49.2°F9.6°C 89% Calm Calm 3.0 mph4.8 kmh 29.31 in992.6 mb 0.00 in0.0 mm 0.00 in0.0 mm 0.00 in0.0 mm
03:45 AM 52.3°F11.3°C 49.2°F9.6°C 89% Calm Calm 3.0 mph4.8 kmh 29.31 in992.6 mb 0.00 in0.0 mm 0.00 in0.0 mm 0.00 in0.0 mm
03:40 AM 52.2°F11.2°C 49.1°F9.5°C 89% 1.0 mph E1.6 kmh E 4.0 mph6.4 kmh 29.32 in992.9 mb 0.00 in0.0 mm 0.00 in0.0 mm 0.00 in0.0 mm
03:30 AM 52.3°F11.3°C 48.9°F9.4°C 88% 1.0 mph SE1.6 kmh SE 5.0 mph8.0 kmh 29.31 in992.6 mb 0.00 in0.0 mm 0.00 in0.0 mm 0.00 in0.0 mm
03:20 AM 52.4°F11.3°C 48.9°F9.4°C 88% 1.0 mph ESE1.6 kmh ESE 6.0 mph9.7 kmh 29.31 in992.6 mb 0.00 in0.0 mm 0.00 in0.0 mm 0.00 in0.0 mm
03:15 AM 52.4°F11.3°C 48.6°F9.2°C 87% 2.0 mph ESE3.2 kmh ESE 6.0 mph9.7 kmh 29.31 in992.6 mb 0.00 in0.0 mm 0.00 in0.0 mm 0.00 in0.0 mm
03:10 AM 52.7°F11.5°C 48.9°F9.4°C 87% 2.0 mph ESE3.2 kmh ESE 7.0 mph11.3 kmh 29.31 in992.6 mb 0.00 in0.0 mm 0.00 in0.0 mm 0.00 in0.0 mm
03:00 AM 53.0°F11.7°C 48.6°F9.2°C 85% 3.0 mph SE4.8 kmh SE 7.0 mph11.3 kmh 29.31 in992.6 mb 0.00 in0.0 mm 0.00 in0.0 mm 0.00 in0.0 mm
02:50 AM 53.2°F11.8°C 48.5°F9.2°C 84% 2.0 mph SE3.2 kmh SE 5.0 mph8.0 kmh 29.31 in992.6 mb 0.00 in0.0 mm 0.00 in0.0 mm 0.00 in0.0 mm
02:45 AM 53.3°F11.8°C 48.6°F9.2°C 84% 2.0 mph SE3.2 kmh SE 5.0 mph8.0 kmh 29.31 in992.6 mb 0.00 in0.0 mm 0.00 in0.0 mm 0.00 in0.0 mm
02:40 AM 53.2°F11.8°C 48.5°F9.2°C 84% 1.0 mph ESE1.6 kmh ESE 4.0 mph6.4 kmh 29.31 in992.6 mb 0.00 in0.0 mm 0.00 in0.0 mm 0.00 in0.0 mm
02:30 AM 53.2°F11.8°C 48.5°F9.2°C 84% 1.0 mph ENE1.6 kmh ENE 4.0 mph6.4 kmh 29.30 in992.2 mb 0.00 in0.0 mm 0.00 in0.0 mm 0.00 in0.0 mm
02:20 AM 53.2°F11.8°C 48.2°F9.0°C 83% 1.0 mph ENE1.6 kmh ENE 5.0 mph8.0 kmh 29.30 in992.2 mb 0.00 in0.0 mm 0.00 in0.0 mm 0.00 in0.0 mm
02:15 AM 53.2°F11.8°C 48.2°F9.0°C 83% 1.0 mph E1.6 kmh E 3.0 mph4.8 kmh 29.30 in992.2 mb 0.00 in0.0 mm 0.00 in0.0 mm 0.00 in0.0 mm
02:10 AM 53.3°F11.8°C 48.3°F9.1°C 83% 1.0 mph ENE1.6 kmh ENE 5.0 mph8.0 kmh 29.31 in992.6 mb 0.00 in0.0 mm 0.00 in0.0 mm 0.00 in0.0 mm
02:00 AM 53.4°F11.9°C 48.0°F8.9°C 82% 1.0 mph E1.6 kmh E 4.0 mph6.4 kmh 29.31 in992.6 mb 0.00 in0.0 mm 0.00 in0.0 mm 0.00 in0.0 mm
01:50 AM 53.6°F12.0°C 48.2°F9.0°C 82% Calm Calm 3.0 mph4.8 kmh 29.31 in992.6 mb 0.00 in0.0 mm 0.00 in0.0 mm 0.00 in0.0 mm
01:45 AM 53.6°F12.0°C 47.9°F8.8°C 81% 1.0 mph ENE1.6 kmh ENE 3.0 mph4.8 kmh 29.31 in992.6 mb 0.00 in0.0 mm 0.00 in0.0 mm 0.00 in0.0 mm
01:40 AM 53.8°F12.1°C 48.1°F8.9°C 81% Calm Calm 3.0 mph4.8 kmh 29.31 in992.6 mb 0.00 in0.0 mm 0.00 in0.0 mm 0.00 in0.0 mm
01:30 AM 54.0°F12.2°C 48.0°F8.9°C 80% 1.0 mph ENE1.6 kmh ENE 3.0 mph4.8 kmh 29.32 in992.9 mb 0.00 in0.0 mm 0.00 in0.0 mm 0.00 in0.0 mm
01:20 AM 54.2°F12.3°C 47.8°F8.8°C 79% 1.0 mph ENE1.6 kmh ENE 4.0 mph6.4 kmh 29.32 in992.9 mb 0.00 in0.0 mm 0.00 in0.0 mm 0.00 in0.0 mm
01:15 AM 54.2°F12.3°C 47.8°F8.8°C 79% 2.0 mph E3.2 kmh E 4.0 mph6.4 kmh 29.32 in992.9 mb 0.00 in0.0 mm 0.00 in0.0 mm 0.00 in0.0 mm
01:10 AM 54.4°F12.4°C 47.7°F8.7°C 78% 1.0 mph E1.6 kmh E 4.0 mph6.4 kmh 29.32 in992.9 mb 0.00 in0.0 mm 0.00 in0.0 mm 0.00 in0.0 mm
01:00 AM 54.6°F12.6°C 47.9°F8.8°C 78% 1.0 mph ESE1.6 kmh ESE 4.0 mph6.4 kmh 29.33 in993.2 mb 0.00 in0.0 mm 0.00 in0.0 mm 0.00 in0.0 mm
12:50 AM 55.0°F12.8°C 47.9°F8.8°C 77% 1.0 mph E1.6 kmh E 4.0 mph6.4 kmh 29.33 in993.2 mb 0.00 in0.0 mm 0.00 in0.0 mm 0.00 in0.0 mm
12:45 AM 55.0°F12.8°C 47.6°F8.7°C 76% 1.0 mph E1.6 kmh E 3.0 mph4.8 kmh 29.33 in993.2 mb 0.00 in0.0 mm 0.00 in0.0 mm 0.00 in0.0 mm
12:40 AM 55.3°F12.9°C 47.5°F8.6°C 75% 1.0 mph SE1.6 kmh SE 5.0 mph8.0 kmh 29.33 in993.2 mb 0.00 in0.0 mm 0.00 in0.0 mm 0.00 in0.0 mm
12:30 AM 55.7°F13.2°C 47.5°F8.6°C 74% 2.0 mph SE3.2 kmh SE 5.0 mph8.0 kmh 29.33 in993.2 mb 0.00 in0.0 mm 0.00 in0.0 mm 0.00 in0.0 mm
12:20 AM 56.2°F13.4°C 47.7°F8.7°C 73% 2.0 mph SE3.2 kmh SE 5.0 mph8.0 kmh 29.33 in993.2 mb 0.00 in0.0 mm 0.00 in0.0 mm 0.00 in0.0 mm
12:15 AM 56.3°F13.5°C 47.4°F8.6°C 72% 1.0 mph SE1.6 kmh SE 4.0 mph6.4 kmh 29.33 in993.2 mb 0.00 in0.0 mm 0.00 in0.0 mm 0.00 in0.0 mm
12:10 AM 56.4°F13.6°C 47.1°F8.4°C 71% 1.0 mph SE1.6 kmh SE 3.0 mph4.8 kmh 29.33 in993.2 mb 0.00 in0.0 mm 0.00 in0.0 mm 0.00 in0.0 mm
12:00 AM 56.3°F13.5°C 47.0°F8.3°C 71% Calm Calm 1.0 mph1.6 kmh 29.33 in993.2 mb 0.00 in0.0 mm 0.00 in0.0 mm 0.00 in0.0 mm